Ionic Kleos — V7DX4 — position and weather

sailwx.info

Track history (hours):
 
Tides and Currents Weather Stations Pressure Air Temp Water Temp Dewpoint Dewpoint Depression Visibility Wind Speed Wind Dir Waves Ship Positions

Ionic Kleos

Last reported at 2018-Feb-20 23:16 UTC. Time now 2018-Feb-21 00:02 UTC.
Position S 23°12' W 044°02'.

Length 229 m; draft 6.2 m.

Type: Cargo ship. MMSI: 538005444.

Date/timePositionNaut miles runAvg speedWind from/ knotsBaromVisibWave heightAir tempDewpointWater temp
2018-Feb-20 23:16S 23°12' W 044°02'0 0.0
2018-Feb-20 20:22S 23°12' W 044°02'0 0.1
2018-Feb-20 19:40S 23°12' W 044°02'0 0.1
2018-Feb-20 19:25S 23°12' W 044°02'3 5.5
2018-Feb-20 18:56S 23°10' W 044°03'6 8.5
2018-Feb-20 18:11S 23°03' W 044°02'13 1.5
2018-Feb-20 09:15S 22°56' W 043°50'0 0.0
2018-Feb-20 08:18S 22°56' W 043°50'0 0.0
2018-Feb-20 08:00S 22°56' W 043°50'0 0.0
2018-Feb-20 07:30S 22°56' W 043°50'0 0.0
2018-Feb-20 06:21S 22°56' W 043°50'0 0.0
2018-Feb-20 05:54S 22°56' W 043°50'0 0.0
2018-Feb-20 05:30S 22°56' W 043°50'0 0.0
2018-Feb-20 05:00S 22°56' W 043°50'0 0.0
2018-Feb-20 04:30S 22°56' W 043°50'0 0.0
2018-Feb-19 13:06S 22°56' W 043°50'  
2018-Feb-12 17:43S 22°56' W 043°50'0 0.5
2018-Feb-12 17:20S 22°56' W 043°50'16 9.3
2018-Feb-12 15:38S 23°03' W 044°06'5 9.7
2018-Feb-12 15:06S 23°07' W 044°03'212.2
2018-Feb-12 14:57S 23°08' W 044°02'1212.2
2018-Feb-12 13:59S 23°09' W 043°49'612.3
2018-Feb-12 13:30S 23°09' W 043°42'612.2
2018-Feb-12 13:01S 23°09' W 043°36'612.1
2018-Feb-12 12:30S 23°09' W 043°29'611.7
2018-Feb-12 12:00S 23°10' W 043°23'612.1
2018-Feb-12 11:30S 23°11' W 043°16'612.2
2018-Feb-12 11:00S 23°11' W 043°10'613.0
2018-Feb-12 10:30S 23°10' W 043°03'712.9
2018-Feb-12 10:00S 23°10' W 042°56'612.7
2018-Feb-12 09:30S 23°10' W 042°49'612.8
2018-Feb-12 09:00S 23°10' W 042°42'  
Track history (hours):
 
Tides and Currents Weather Stations Pressure Air Temp Water Temp Dewpoint Dewpoint Depression Visibility Wind Speed Wind Dir Waves Ship Positions

Ionic Kleos

Last reported at 2018-Feb-20 23:16 UTC. Time now 2018-Feb-21 00:02 UTC.
Position S 23°12' W 044°02'.

Length 229 m; draft 6.2 m.

Type: Cargo ship. MMSI: 538005444.

Date/timePositionNaut miles runAvg speedWind from/ knotsBaromVisibWave heightAir tempDewpointWater temp
2018-Feb-20 23:16S 23°12' W 044°02'0 0.0
2018-Feb-20 20:22S 23°12' W 044°02'0 0.1
2018-Feb-20 19:40S 23°12' W 044°02'0 0.1
2018-Feb-20 19:25S 23°12' W 044°02'3 5.5
2018-Feb-20 18:56S 23°10' W 044°03'6 8.5
2018-Feb-20 18:11S 23°03' W 044°02'13 1.5
2018-Feb-20 09:15S 22°56' W 043°50'0 0.0
2018-Feb-20 08:18S 22°56' W 043°50'0 0.0
2018-Feb-20 08:00S 22°56' W 043°50'0 0.0
2018-Feb-20 07:30S 22°56' W 043°50'0 0.0
2018-Feb-20 06:21S 22°56' W 043°50'0 0.0
2018-Feb-20 05:54S 22°56' W 043°50'0 0.0
2018-Feb-20 05:30S 22°56' W 043°50'0 0.0
2018-Feb-20 05:00S 22°56' W 043°50'0 0.0
2018-Feb-20 04:30S 22°56' W 043°50'0 0.0
2018-Feb-19 13:06S 22°56' W 043°50'  
2018-Feb-12 17:43S 22°56' W 043°50'0 0.5
2018-Feb-12 17:20S 22°56' W 043°50'16 9.3
2018-Feb-12 15:38S 23°03' W 044°06'5 9.7
2018-Feb-12 15:06S 23°07' W 044°03'212.2
2018-Feb-12 14:57S 23°08' W 044°02'1212.2
2018-Feb-12 13:59S 23°09' W 043°49'612.3
2018-Feb-12 13:30S 23°09' W 043°42'612.2
2018-Feb-12 13:01S 23°09' W 043°36'612.1
2018-Feb-12 12:30S 23°09' W 043°29'611.7
2018-Feb-12 12:00S 23°10' W 043°23'612.1
2018-Feb-12 11:30S 23°11' W 043°16'612.2
2018-Feb-12 11:00S 23°11' W 043°10'613.0
2018-Feb-12 10:30S 23°10' W 043°03'712.9
2018-Feb-12 10:00S 23°10' W 042°56'612.7
2018-Feb-12 09:30S 23°10' W 042°49'612.8
2018-Feb-12 09:00S 23°10' W 042°42'  

Dump ship's entire track history